Time;durP1;ratioP1;P1;durP2;ratioP2;P2;SDS_P1;SDS_P2;PMS_P1;PMS_P2;Temp;Humidity;BMP_temperature;BMP_pressure;BME280_temperature;BME280_humidity;BME280_pressure;Samples;Min_cycle;Max_cycle;Signal;HPM_P1;HPM_P2
2022/01/08 00:00:11;;;;;;;6.38;3.47;;;;;;;;;;5071428;28;20459;-38
2022/01/08 00:02:40;;;;;;;5.40;3.60;;;;;;;;;;5071358;28;20491;-37
2022/01/08 00:05:06;;;;;;;6.65;3.22;;;;;;;;;;5071163;28;20130;-39
2022/01/08 00:07:32;;;;;;;4.03;2.28;;;;;;;;;;5071173;28;20043;-38
2022/01/08 00:09:57;;;;;;;5.07;2.30;;;;;;;;;;5071318;28;20486;-38
2022/01/08 00:12:24;;;;;;;7.30;3.13;;;;;;;;;;5071153;28;20051;-37
2022/01/08 00:14:49;;;;;;;3.63;2.35;;;;;;;;;;5071393;28;20032;-38
2022/01/08 00:17:15;;;;;;;4.60;2.58;;;;;;;;;;5071500;28;20036;-37
2022/01/08 00:19:40;;;;;;;6.00;3.15;;;;;;;;;;5071133;28;20038;-38
2022/01/08 00:22:06;;;;;;;2.65;2.20;;;;;;;;;;5071038;28;20040;-37
2022/01/08 00:24:31;;;;;;;6.03;2.30;;;;;;;;;;5071387;28;20024;-37
2022/01/08 00:26:57;;;;;;;9.02;3.65;;;;;;;;;;5071136;28;20040;-37
2022/01/08 00:29:22;;;;;;;5.85;2.63;;;;;;;;;;5069902;28;20521;-37
2022/01/08 00:31:48;;;;;;;7.43;3.20;;;;;;;;;;5071244;28;20032;-38
2022/01/08 00:34:13;;;;;;;4.97;2.38;;;;;;;;;;5074398;28;20471;-38
2022/01/08 00:36:39;;;;;;;5.53;3.25;;;;;;;;;;5075431;28;20020;-38
2022/01/08 00:39:04;;;;;;;10.25;4.15;;;;;;;;;;5073798;28;20048;-40
2022/01/08 00:41:30;;;;;;;7.25;3.15;;;;;;;;;;5075299;28;20521;-38
2022/01/08 00:43:55;;;;;;;3.03;2.22;;;;;;;;;;5074771;28;20486;-37
2022/01/08 00:46:21;;;;;;;10.43;3.50;;;;;;;;;;5075126;28;20036;-37
2022/01/08 00:48:46;;;;;;;6.55;2.90;;;;;;;;;;5074881;28;20769;-38
2022/01/08 00:51:11;;;;;;;7.57;2.95;;;;;;;;;;5074960;28;20031;-37
2022/01/08 00:53:37;;;;;;;6.47;2.83;;;;;;;;;;5074738;28;20024;-38
2022/01/08 00:56:03;;;;;;;4.15;2.28;;;;;;;;;;5074627;28;20024;-37
2022/01/08 00:58:28;;;;;;;4.20;2.67;;;;;;;;;;5090471;28;20025;-38
2022/01/08 01:00:54;;;;;;;4.63;2.30;;;;;;;;;;5074861;28;20033;-38
2022/01/08 01:03:19;;;;;;;5.22;2.85;;;;;;;;;;5074589;28;20028;-38
2022/01/08 01:05:45;;;;;;;5.85;2.47;;;;;;;;;;5074410;28;20028;-37
2022/01/08 01:08:10;;;;;;;6.28;2.33;;;;;;;;;;5074563;28;20032;-37
2022/01/08 01:10:36;;;;;;;4.10;2.25;;;;;;;;;;5074584;28;20032;-37
2022/01/08 01:13:01;;;;;;;7.53;2.70;;;;;;;;;;5074343;28;20097;-37
2022/01/08 01:15:27;;;;;;;4.88;2.08;;;;;;;;;;5074503;28;20382;-37
2022/01/08 01:17:52;;;;;;;4.40;2.33;;;;;;;;;;5074471;28;20367;-38
2022/01/08 01:20:20;;;;;;;4.57;2.10;;;;;;;;;;5074262;28;20036;-38
2022/01/08 01:25:15;;;;;;;3.65;2.00;;;;;;;;;;5073992;28;20025;-38
2022/01/08 01:49:10;;;;;;;3.50;2.17;;;;;;;;;;5057306;28;20048;-37
2022/01/08 01:51:36;;;;;;;3.97;2.22;;;;;;;;;;5073732;28;20394;-38
2022/01/08 01:54:01;;;;;;;3.00;1.80;;;;;;;;;;5073718;28;20036;-37
2022/01/08 01:56:27;;;;;;;3.17;2.20;;;;;;;;;;5073625;28;20532;-38
2022/01/08 01:58:53;;;;;;;2.55;2.13;;;;;;;;;;5073506;28;20385;-38
2022/01/08 02:01:18;;;;;;;4.60;2.63;;;;;;;;;;5073382;28;20103;-38
2022/01/08 02:03:44;;;;;;;4.25;1.90;;;;;;;;;;5073460;28;20028;-37
2022/01/08 02:06:09;;;;;;;4.15;2.25;;;;;;;;;;5073334;28;20100;-37
2022/01/08 02:08:36;;;;;;;3.13;2.30;;;;;;;;;;5073284;28;20047;-38
2022/01/08 02:11:01;;;;;;;3.22;1.90;;;;;;;;;;5073583;28;20024;-37
2022/01/08 02:13:28;;;;;;;3.08;1.83;;;;;;;;;;5073175;28;20445;-38
2022/01/08 02:15:55;;;;;;;5.78;3.22;;;;;;;;;;5073465;28;20109;-38
2022/01/08 02:18:21;;;;;;;4.43;1.83;;;;;;;;;;5073269;28;20074;-38
2022/01/08 02:20:46;;;;;;;3.97;2.40;;;;;;;;;;5073284;28;20352;-37
2022/01/08 02:23:12;;;;;;;3.60;2.17;;;;;;;;;;5073044;28;20074;-42
2022/01/08 02:25:37;;;;;;;8.98;2.20;;;;;;;;;;5072949;28;20050;-37
2022/01/08 02:28:03;;;;;;;2.58;2.00;;;;;;;;;;5072858;28;20032;-37
2022/01/08 02:30:28;;;;;;;4.47;2.15;;;;;;;;;;5073088;28;20016;-37
2022/01/08 02:32:54;;;;;;;4.43;1.73;;;;;;;;;;5073055;28;20036;-37
2022/01/08 02:35:22;;;;;;;5.30;1.85;;;;;;;;;;5072782;28;20016;-37
2022/01/08 02:37:47;;;;;;;5.70;2.15;;;;;;;;;;5072717;28;20032;-37
2022/01/08 02:40:13;;;;;;;5.72;2.85;;;;;;;;;;5072662;28;20526;-37
2022/01/08 02:42:49;;;;;;;3.42;1.67;;;;;;;;;;5072667;28;20497;-37
2022/01/08 02:45:15;;;;;;;6.30;2.35;;;;;;;;;;5072499;28;20032;-37
2022/01/08 02:47:40;;;;;;;4.38;2.40;;;;;;;;;;5071597;28;20089;-37
2022/01/08 02:50:06;;;;;;;4.57;2.28;;;;;;;;;;5072351;28;20055;-37
2022/01/08 02:52:31;;;;;;;7.72;2.72;;;;;;;;;;5072454;28;20043;-37
2022/01/08 02:54:56;;;;;;;3.28;1.63;;;;;;;;;;5072140;28;20025;-37
2022/01/08 02:57:22;;;;;;;5.00;2.17;;;;;;;;;;5072015;28;20024;-38
2022/01/08 02:59:47;;;;;;;3.85;2.08;;;;;;;;;;5072613;28;20032;-38
2022/01/08 03:02:13;;;;;;;5.30;2.40;;;;;;;;;;5072229;28;20024;-37
2022/01/08 03:04:39;;;;;;;2.75;1.83;;;;;;;;;;5072213;28;20467;-37
2022/01/08 03:07:04;;;;;;;4.03;2.38;;;;;;;;;;5072081;28;20123;-38
2022/01/08 03:09:31;;;;;;;6.40;2.42;;;;;;;;;;5072115;28;20099;-37
2022/01/08 03:11:57;;;;;;;6.88;3.15;;;;;;;;;;5072228;28;20081;-38
2022/01/08 03:14:22;;;;;;;4.40;2.45;;;;;;;;;;5072101;28;20024;-37
2022/01/08 03:16:47;;;;;;;3.72;3.05;;;;;;;;;;5072314;28;20016;-37
2022/01/08 03:19:15;;;;;;;5.68;2.75;;;;;;;;;;5072152;28;20386;-37
2022/01/08 03:21:51;;;;;;;5.70;2.88;;;;;;;;;;5072206;28;20020;-38
2022/01/08 03:24:25;;;;;;;7.05;4.18;;;;;;;;;;5072138;28;20025;-38
2022/01/08 03:26:50;;;;;;;4.25;2.70;;;;;;;;;;5072037;28;20028;-37
2022/01/08 03:29:16;;;;;;;5.93;3.08;;;;;;;;;;5071834;28;20047;-37
2022/01/08 03:31:41;;;;;;;5.60;2.40;;;;;;;;;;5071653;28;20033;-37
2022/01/08 03:34:06;;;;;;;5.93;2.58;;;;;;;;;;5071600;28;20024;-37
2022/01/08 03:36:32;;;;;;;5.78;1.95;;;;;;;;;;5071745;28;20352;-37
2022/01/08 03:38:57;;;;;;;6.60;2.17;;;;;;;;;;5071272;28;20067;-38
2022/01/08 03:41:23;;;;;;;3.63;2.35;;;;;;;;;;5071709;28;20028;-38
2022/01/08 03:43:49;;;;;;;4.22;3.30;;;;;;;;;;5071537;28;20064;-38
2022/01/08 03:46:14;;;;;;;2.28;1.90;;;;;;;;;;5071250;28;20371;-37
2022/01/08 03:51:08;;;;;;;8.45;1.48;;;;;;;;;;5071346;28;20029;-37
2022/01/08 03:53:34;;;;;;;2.55;2.17;;;;;;;;;;5071432;28;20105;-38
2022/01/08 03:55:59;;;;;;;4.40;1.23;;;;;;;;;;5071383;28;20509;-37
2022/01/08 03:58:25;;;;;;;3.05;1.15;;;;;;;;;;5071363;28;20025;-37
2022/01/08 04:00:51;;;;;;;2.35;1.77;;;;;;;;;;5071363;28;20024;-37
2022/01/08 04:03:18;;;;;;;3.72;2.60;;;;;;;;;;5071696;28;20048;-37
2022/01/08 04:05:45;;;;;;;0.70;0.70;;;;;;;;;;5071680;28;20032;-37
2022/01/08 04:08:10;;;;;;;1.75;1.20;;;;;;;;;;5070303;28;20033;-37
2022/01/08 04:10:36;;;;;;;5.18;2.20;;;;;;;;;;5071272;28;20074;-38
2022/01/08 04:13:09;;;;;;;12.20;3.55;;;;;;;;;;5071152;28;20090;-37
2022/01/08 04:15:37;;;;;;;4.15;2.25;;;;;;;;;;5071107;28;20468;-37
2022/01/08 04:18:03;;;;;;;2.58;1.90;;;;;;;;;;5071206;28;20379;-37
2022/01/08 04:20:29;;;;;;;3.97;2.20;;;;;;;;;;5071114;28;20464;-37
2022/01/08 04:22:55;;;;;;;2.35;1.98;;;;;;;;;;5071099;28;20024;-38
2022/01/08 04:25:21;;;;;;;5.75;3.30;;;;;;;;;;5071143;28;20090;-38
2022/01/08 04:27:47;;;;;;;6.88;2.60;;;;;;;;;;5071071;28;20475;-38
2022/01/08 04:30:12;;;;;;;10.35;2.40;;;;;;;;;;5070971;28;20024;-37
2022/01/08 04:32:39;;;;;;;6.60;2.70;;;;;;;;;;5071067;28;20471;-38
2022/01/08 04:35:05;;;;;;;4.60;2.40;;;;;;;;;;5071186;28;20024;-37
2022/01/08 04:37:30;;;;;;;3.22;2.03;;;;;;;;;;5071085;28;20108;-37
2022/01/08 04:39:56;;;;;;;3.72;2.40;;;;;;;;;;5070645;28;20499;-37
2022/01/08 04:42:21;;;;;;;0.98;0.98;;;;;;;;;;5071300;28;20024;-37
2022/01/08 04:44:47;;;;;;;2.35;1.73;;;;;;;;;;5070853;28;20708;-37
2022/01/08 04:47:13;;;;;;;2.45;1.70;;;;;;;;;;5070787;28;20048;-37
2022/01/08 04:49:38;;;;;;;10.40;1.15;;;;;;;;;;5071173;28;20039;-37
2022/01/08 04:52:04;;;;;;;5.13;2.20;;;;;;;;;;5070737;28;20020;-37
2022/01/08 04:54:29;;;;;;;3.35;1.80;;;;;;;;;;5070845;28;20024;-37
2022/01/08 04:56:55;;;;;;;6.32;2.90;;;;;;;;;;5070841;28;20066;-38
2022/01/08 04:59:20;;;;;;;2.97;2.40;;;;;;;;;;5071057;28;20451;-38
2022/01/08 05:01:46;;;;;;;3.47;2.13;;;;;;;;;;5070851;28;20425;-37
2022/01/08 05:04:12;;;;;;;4.00;2.40;;;;;;;;;;5070928;28;20029;-39
2022/01/08 05:06:38;;;;;;;5.18;2.35;;;;;;;;;;5070903;28;20036;-38
2022/01/08 05:09:04;;;;;;;4.88;2.72;;;;;;;;;;5070675;28;20497;-37
2022/01/08 05:11:30;;;;;;;7.55;2.10;;;;;;;;;;5070909;28;20024;-37
2022/01/08 05:13:56;;;;;;;3.78;1.95;;;;;;;;;;5070515;28;20035;-38
2022/01/08 05:16:22;;;;;;;5.45;2.28;;;;;;;;;;5070641;28;20021;-38
2022/01/08 05:18:51;;;;;;;2.78;1.95;;;;;;;;;;5071388;28;20021;-38
2022/01/08 05:23:42;;;;;;;2.30;1.95;;;;;;;;;;5074138;28;20036;-37
2022/01/08 05:26:07;;;;;;;4.00;1.92;;;;;;;;;;5074314;28;20073;-38
2022/01/08 05:28:33;;;;;;;3.85;2.30;;;;;;;;;;5074398;28;20402;-37
2022/01/08 05:30:58;;;;;;;4.85;1.10;;;;;;;;;;5073952;28;20477;-38
2022/01/08 05:33:24;;;;;;;2.25;1.20;;;;;;;;;;5074047;28;20020;-37
2022/01/08 05:35:49;;;;;;;2.88;2.28;;;;;;;;;;5074061;28;20520;-38
2022/01/08 05:38:14;;;;;;;2.95;2.28;;;;;;;;;;5074089;28;20127;-37
2022/01/08 05:40:40;;;;;;;2.92;1.95;;;;;;;;;;5073809;28;20391;-37
2022/01/08 05:43:05;;;;;;;1.60;1.50;;;;;;;;;;5073777;28;20037;-37
2022/01/08 05:45:31;;;;;;;4.32;2.15;;;;;;;;;;5073836;28;20100;-37
2022/01/08 05:47:56;;;;;;;3.30;2.13;;;;;;;;;;5073610;28;20401;-38
2022/01/08 05:50:22;;;;;;;7.93;2.95;;;;;;;;;;5073792;28;20027;-38
2022/01/08 05:52:48;;;;;;;4.15;2.60;;;;;;;;;;5073748;28;20656;-38
2022/01/08 05:55:14;;;;;;;1.77;1.67;;;;;;;;;;5073390;28;20052;-38
2022/01/08 05:57:40;;;;;;;3.40;2.17;;;;;;;;;;5073585;28;20059;-37
2022/01/08 06:00:07;;;;;;;2.13;1.63;;;;;;;;;;5073858;28;20040;-37
2022/01/08 06:02:36;;;;;;;2.97;2.30;;;;;;;;;;5073464;28;20078;-37
2022/01/08 06:05:02;;;;;;;1.90;1.50;;;;;;;;;;5072151;28;20094;-37
2022/01/08 06:07:28;;;;;;;2.97;2.50;;;;;;;;;;5073311;28;20032;-38
2022/01/08 06:09:53;;;;;;;4.38;2.53;;;;;;;;;;5073290;28;20027;-38
2022/01/08 06:12:18;;;;;;;2.47;1.42;;;;;;;;;;5073576;28;20058;-38
2022/01/08 06:14:44;;;;;;;4.45;2.35;;;;;;;;;;5073163;28;20020;-37
2022/01/08 06:17:10;;;;;;;5.50;1.80;;;;;;;;;;5073113;28;20054;-38
2022/01/08 06:19:36;;;;;;;3.72;2.17;;;;;;;;;;5073179;28;20483;-37
2022/01/08 06:22:01;;;;;;;1.60;0.98;;;;;;;;;;5073090;28;20047;-38
2022/01/08 06:24:27;;;;;;;5.25;2.25;;;;;;;;;;5073086;28;20024;-37
2022/01/08 06:26:52;;;;;;;2.92;1.73;;;;;;;;;;5073240;28;20039;-38
2022/01/08 06:29:18;;;;;;;3.22;1.75;;;;;;;;;;5072945;28;20024;-38
2022/01/08 06:31:43;;;;;;;2.35;1.60;;;;;;;;;;5072290;28;20048;-37
2022/01/08 06:34:09;;;;;;;3.70;2.28;;;;;;;;;;5073076;28;20377;-41
2022/01/08 06:36:34;;;;;;;3.72;2.47;;;;;;;;;;5073154;28;20024;-38
2022/01/08 06:38:59;;;;;;;3.15;1.70;;;;;;;;;;5071210;28;20047;-37
2022/01/08 06:41:25;;;;;;;9.80;2.63;;;;;;;;;;5073102;28;20078;-38
2022/01/08 06:43:50;;;;;;;3.08;1.80;;;;;;;;;;5072738;28;20063;-37
2022/01/08 06:46:16;;;;;;;3.90;2.10;;;;;;;;;;5072538;28;20041;-37
2022/01/08 06:48:41;;;;;;;7.20;2.33;;;;;;;;;;5072569;28;20056;-37
2022/01/08 06:51:07;;;;;;;7.32;2.45;;;;;;;;;;5072469;28;20063;-37
2022/01/08 06:53:33;;;;;;;6.05;3.08;;;;;;;;;;5072511;28;20028;-37
2022/01/08 06:55:59;;;;;;;5.55;2.05;;;;;;;;;;5072512;28;20356;-37
2022/01/08 06:58:26;;;;;;;6.05;2.20;;;;;;;;;;5072411;28;20017;-37
2022/01/08 07:00:52;;;;;;;4.90;2.10;;;;;;;;;;5072389;28;20094;-37
2022/01/08 07:03:17;;;;;;;10.68;3.38;;;;;;;;;;5072192;28;20067;-38
2022/01/08 07:05:43;;;;;;;7.10;2.47;;;;;;;;;;5072547;28;20694;-38
2022/01/08 07:08:10;;;;;;;5.80;3.17;;;;;;;;;;5072035;28;20394;-37
2022/01/08 07:10:36;;;;;;;5.80;2.17;;;;;;;;;;5072171;28;20103;-37
2022/01/08 07:13:01;;;;;;;7.68;2.60;;;;;;;;;;5071913;28;20148;-38
2022/01/08 07:15:27;;;;;;;6.28;3.08;;;;;;;;;;5072353;28;20024;-37
2022/01/08 07:17:52;;;;;;;3.38;2.00;;;;;;;;;;5071051;28;20024;-37
2022/01/08 07:20:18;;;;;;;5.18;2.47;;;;;;;;;;5072152;28;20031;-37
2022/01/08 07:22:43;;;;;;;6.22;1.70;;;;;;;;;;5072000;28;20475;-37
2022/01/08 07:25:09;;;;;;;5.65;2.53;;;;;;;;;;5071728;28;20040;-37
2022/01/08 07:27:35;;;;;;;4.53;2.13;;;;;;;;;;5071797;28;20036;-37
2022/01/08 07:30:05;;;;;;;5.05;2.90;;;;;;;;;;5071733;28;20028;-38
2022/01/08 07:32:31;;;;;;;4.57;2.33;;;;;;;;;;5071825;28;20056;-39
2022/01/08 07:34:56;;;;;;;2.92;2.00;;;;;;;;;;5071556;28;20024;-38
2022/01/08 07:37:22;;;;;;;1.95;1.65;;;;;;;;;;5071724;28;20111;-37
2022/01/08 07:39:47;;;;;;;7.10;3.08;;;;;;;;;;5071564;28;20056;-37
2022/01/08 07:42:13;;;;;;;9.38;4.10;;;;;;;;;;5087044;28;20032;-37
2022/01/08 07:44:39;;;;;;;6.57;2.50;;;;;;;;;;5071712;28;20020;-38
2022/01/08 07:47:05;;;;;;;2.42;2.22;;;;;;;;;;5071651;28;20032;-37
2022/01/08 07:49:31;;;;;;;3.95;2.50;;;;;;;;;;5071713;28;20509;-37
2022/01/08 07:51:56;;;;;;;7.18;2.22;;;;;;;;;;5071479;28;20462;-37
2022/01/08 07:54:22;;;;;;;5.60;3.13;;;;;;;;;;5071638;28;20044;-38
2022/01/08 07:56:47;;;;;;;3.70;2.60;;;;;;;;;;5071397;28;20532;-37
2022/01/08 07:59:13;;;;;;;2.53;1.20;;;;;;;;;;5071274;28;20060;-37
2022/01/08 08:01:38;;;;;;;4.03;2.13;;;;;;;;;;5071645;28;20025;-38
2022/01/08 08:04:04;;;;;;;4.18;2.45;;;;;;;;;;5087107;28;20036;-37
2022/01/08 08:06:29;;;;;;;2.10;1.50;;;;;;;;;;5071221;28;20060;-37
2022/01/08 08:08:55;;;;;;;4.68;2.40;;;;;;;;;;5071608;28;20040;-37
2022/01/08 08:11:20;;;;;;;5.50;1.30;;;;;;;;;;5071096;28;20079;-38
2022/01/08 08:13:46;;;;;;;3.60;2.30;;;;;;;;;;5071167;28;20043;-38
2022/01/08 08:16:11;;;;;;;3.55;2.80;;;;;;;;;;5071193;28;20024;-37
2022/01/08 08:18:37;;;;;;;6.93;2.60;;;;;;;;;;5071211;28;20055;-37
2022/01/08 08:21:02;;;;;;;5.40;2.50;;;;;;;;;;5069859;28;20131;-37
2022/01/08 08:23:28;;;;;;;6.60;2.70;;;;;;;;;;5071221;28;20580;-37
2022/01/08 08:25:53;;;;;;;2.47;1.63;;;;;;;;;;5071378;28;20032;-37
2022/01/08 08:28:19;;;;;;;2.70;2.50;;;;;;;;;;5071056;28;20475;-37
2022/01/08 08:30:44;;;;;;;4.38;2.08;;;;;;;;;;5071315;28;20099;-37
2022/01/08 08:33:10;;;;;;;3.45;2.05;;;;;;;;;;5070894;28;20032;-37
2022/01/08 08:35:35;;;;;;;3.10;1.95;;;;;;;;;;5071105;28;20236;-37
2022/01/08 08:38:01;;;;;;;5.70;2.30;;;;;;;;;;5070832;28;20028;-37
2022/01/08 08:40:27;;;;;;;4.85;2.20;;;;;;;;;;5070879;28;20044;-37
2022/01/08 08:42:53;;;;;;;4.45;2.45;;;;;;;;;;5071182;28;20028;-37
2022/01/08 08:45:18;;;;;;;4.82;3.28;;;;;;;;;;5070879;28;20028;-38
2022/01/08 08:47:44;;;;;;;4.95;2.20;;;;;;;;;;5071211;28;20048;-38
2022/01/08 08:50:12;;;;;;;4.97;2.70;;;;;;;;;;5069533;28;20574;-37
2022/01/08 08:52:37;;;;;;;2.60;1.75;;;;;;;;;;5070851;28;20074;-38
2022/01/08 08:55:04;;;;;;;2.45;1.02;;;;;;;;;;5073885;28;20020;-38
2022/01/08 08:57:29;;;;;;;2.25;1.77;;;;;;;;;;5074696;28;20064;-37
2022/01/08 08:59:55;;;;;;;0.57;0.57;;;;;;;;;;5074986;28;20058;-37
2022/01/08 09:02:21;;;;;;;2.47;1.75;;;;;;;;;;5074454;28;20391;-38
2022/01/08 09:04:48;;;;;;;2.38;1.23;;;;;;;;;;5074584;28;20036;-38
2022/01/08 09:07:13;;;;;;;3.38;2.10;;;;;;;;;;5074661;28;20040;-38
2022/01/08 09:09:39;;;;;;;4.82;2.42;;;;;;;;;;5074496;28;20040;-38
2022/01/08 09:12:05;;;;;;;5.60;2.63;;;;;;;;;;5074433;28;20078;-39
2022/01/08 09:14:30;;;;;;;2.17;1.95;;;;;;;;;;5074287;28;20066;-37
2022/01/08 09:16:58;;;;;;;4.95;2.58;;;;;;;;;;5074385;28;20040;-37
2022/01/08 09:19:24;;;;;;;2.50;1.73;;;;;;;;;;5074426;28;20016;-37
2022/01/08 09:21:50;;;;;;;2.60;1.88;;;;;;;;;;5074165;28;20035;-37
2022/01/08 09:24:18;;;;;;;6.90;2.13;;;;;;;;;;5072869;28;20020;-37
2022/01/08 09:26:44;;;;;;;2.03;1.52;;;;;;;;;;5074106;28;20085;-38
2022/01/08 09:29:09;;;;;;;2.70;2.15;;;;;;;;;;5074075;28;20036;-37
2022/01/08 09:31:35;;;;;;;3.28;1.90;;;;;;;;;;5074182;28;20115;-37
2022/01/08 09:34:01;;;;;;;2.45;1.75;;;;;;;;;;5073924;28;20029;-37
2022/01/08 09:36:27;;;;;;;2.72;1.48;;;;;;;;;;5073988;28;20043;-37
2022/01/08 09:38:52;;;;;;;1.85;1.70;;;;;;;;;;5072561;28;20031;-37
2022/01/08 09:41:18;;;;;;;5.63;1.77;;;;;;;;;;5073834;28;20029;-38
2022/01/08 09:43:43;;;;;;;2.70;1.75;;;;;;;;;;5073802;28;20045;-38
2022/01/08 09:46:09;;;;;;;3.72;1.70;;;;;;;;;;5073702;28;20033;-37
2022/01/08 09:48:35;;;;;;;4.43;1.95;;;;;;;;;;5073743;28;20086;-37
2022/01/08 09:51:00;;;;;;;3.20;1.67;;;;;;;;;;5073927;28;20028;-37
2022/01/08 09:53:26;;;;;;;3.90;2.00;;;;;;;;;;5073617;28;20452;-37
2022/01/08 09:55:51;;;;;;;2.63;1.42;;;;;;;;;;5073740;28;20040;-38
2022/01/08 09:58:17;;;;;;;5.72;2.13;;;;;;;;;;5073789;28;20063;-37
2022/01/08 10:00:44;;;;;;;3.50;2.33;;;;;;;;;;5073671;28;20033;-37
2022/01/08 10:03:33;;;;;;;1.35;0.88;;;;;;;;;;5073361;28;20021;-38
2022/01/08 10:05:59;;;;;;;2.92;1.70;;;;;;;;;;5072095;28;20502;-38
2022/01/08 10:08:26;;;;;;;6.47;1.77;;;;;;;;;;5073304;28;20028;-37
2022/01/08 10:10:59;;;;;;;4.25;1.27;;;;;;;;;;5073340;28;20108;-37
2022/01/08 10:13:27;;;;;;;4.82;2.33;;;;;;;;;;5073300;28;20094;-37
2022/01/08 10:18:39;;;;;;;2.35;1.30;;;;;;;;;;5073199;28;20032;-38
2022/01/08 10:21:14;;;;;;;3.75;2.58;;;;;;;;;;5073405;28;20024;-37
2022/01/08 10:23:41;;;;;;;4.05;2.20;;;;;;;;;;5088738;28;20037;-37
2022/01/08 10:26:08;;;;;;;2.58;1.35;;;;;;;;;;5072940;28;20029;-37
2022/01/08 10:28:35;;;;;;;1.88;1.45;;;;;;;;;;5073370;28;20060;-37
2022/01/08 10:31:21;;;;;;;2.72;1.48;;;;;;;;;;5073069;28;20089;-37
2022/01/08 10:34:08;;;;;;;2.05;1.63;;;;;;;;;;5072771;28;20036;-37
2022/01/08 10:36:46;;;;;;;1.65;1.40;;;;;;;;;;5072876;28;20115;-37
2022/01/08 10:39:17;;;;;;;1.83;1.30;;;;;;;;;;5072497;28;20049;-37
2022/01/08 10:41:44;;;;;;;4.25;2.88;;;;;;;;;;5072944;28;20040;-38
2022/01/08 10:44:17;;;;;;;2.90;1.33;;;;;;;;;;5072564;28;20028;-37
2022/01/08 10:46:44;;;;;;;2.22;1.45;;;;;;;;;;5072526;28;20028;-38
2022/01/08 10:49:09;;;;;;;2.22;1.25;;;;;;;;;;5072510;28;20033;-41
2022/01/08 10:51:36;;;;;;;5.97;1.02;;;;;;;;;;5072889;28;20025;-38
2022/01/08 10:54:05;;;;;;;2.15;1.67;;;;;;;;;;5072496;28;20489;-38
2022/01/08 10:56:32;;;;;;;1.95;1.50;;;;;;;;;;5072713;28;20378;-38
2022/01/08 10:59:02;;;;;;;4.40;1.85;;;;;;;;;;5072622;28;20021;-37
2022/01/08 11:01:48;;;;;;;1.45;1.23;;;;;;;;;;5072314;28;20025;-38
2022/01/08 11:04:15;;;;;;;1.77;1.67;;;;;;;;;;5072287;28;20032;-38
2022/01/08 11:06:57;;;;;;;4.18;1.77;;;;;;;;;;5072485;28;20136;-37
2022/01/08 11:09:24;;;;;;;2.38;1.40;;;;;;;;;;5072438;28;20028;-37
2022/01/08 11:11:51;;;;;;;0.85;0.77;;;;;;;;;;5072241;28;20022;-37
2022/01/08 11:14:44;;;;;;;1.95;1.33;;;;;;;;;;5071993;28;20502;-38
2022/01/08 11:17:08;;;;;;;1.52;1.13;;;;;;;;;;5071658;28;20060;-37
2022/01/08 11:19:35;;;;;;;2.85;1.20;;;;;;;;;;5072123;28;20100;-37
2022/01/08 11:22:00;;;;;;;1.92;1.20;;;;;;;;;;5071843;28;20032;-37
2022/01/08 11:24:27;;;;;;;0.68;0.65;;;;;;;;;;5071903;28;20035;-37
2022/01/08 11:26:55;;;;;;;1.83;1.48;;;;;;;;;;5071778;28;20028;-40
2022/01/08 11:29:22;;;;;;;2.22;1.00;;;;;;;;;;5071741;28;20012;-37
2022/01/08 11:31:51;;;;;;;2.35;1.50;;;;;;;;;;5071831;28;20380;-37
2022/01/08 11:34:18;;;;;;;1.73;0.90;;;;;;;;;;5071903;28;20411;-38
2022/01/08 11:36:48;;;;;;;1.52;1.20;;;;;;;;;;5071775;28;20056;-38
2022/01/08 11:39:14;;;;;;;5.47;2.50;;;;;;;;;;5071535;28;20041;-38
2022/01/08 11:41:40;;;;;;;1.80;0.88;;;;;;;;;;5071831;28;20043;-37
2022/01/08 11:44:06;;;;;;;7.18;1.40;;;;;;;;;;5071679;28;20035;-37
2022/01/08 11:46:34;;;;;;;2.28;1.48;;;;;;;;;;5071336;28;20033;-38
2022/01/08 11:49:00;;;;;;;1.33;1.15;;;;;;;;;;5071451;28;20028;-38
2022/01/08 11:51:27;;;;;;;0.73;0.70;;;;;;;;;;5071718;28;20032;-38
2022/01/08 11:53:54;;;;;;;6.57;1.73;;;;;;;;;;5071577;28;20036;-38
2022/01/08 11:56:22;;;;;;;1.02;0.50;;;;;;;;;;5071314;28;20039;-37
2022/01/08 11:59:01;;;;;;;1.30;1.25;;;;;;;;;;5070109;28;20024;-37
2022/01/08 12:01:27;;;;;;;1.48;1.25;;;;;;;;;;5071594;28;20040;-37
2022/01/08 12:03:53;;;;;;;3.58;1.45;;;;;;;;;;5071330;28;20017;-38
2022/01/08 12:06:24;;;;;;;0.90;0.80;;;;;;;;;;5071159;28;20037;-37
2022/01/08 12:08:57;;;;;;;1.83;0.80;;;;;;;;;;5071259;28;20422;-37
2022/01/08 12:11:26;;;;;;;4.38;1.50;;;;;;;;;;5071158;28;20024;-37
2022/01/08 12:13:52;;;;;;;1.33;0.80;;;;;;;;;;5071158;28;20047;-37
2022/01/08 12:16:50;;;;;;;3.05;1.27;;;;;;;;;;5071146;28;20479;-37
2022/01/08 12:19:28;;;;;;;3.10;1.30;;;;;;;;;;5047729;28;20193;-37
2022/01/08 12:21:54;;;;;;;1.48;1.38;;;;;;;;;;5071065;28;20036;-38
2022/01/08 12:24:26;;;;;;;2.55;1.48;;;;;;;;;;5071008;28;20059;-37
2022/01/08 12:26:53;;;;;;;1.60;1.10;;;;;;;;;;5071308;28;20036;-37
2022/01/08 12:29:31;;;;;;;1.05;0.65;;;;;;;;;;5072999;28;20492;-38
2022/01/08 12:32:15;;;;;;;3.45;1.00;;;;;;;;;;5075203;28;20036;-38
2022/01/08 12:34:48;;;;;;;4.72;1.48;;;;;;;;;;5075417;28;20069;-37
2022/01/08 12:37:14;;;;;;;2.05;1.60;;;;;;;;;;5075122;28;20475;-38
2022/01/08 12:39:44;;;;;;;1.45;1.15;;;;;;;;;;5090679;28;20151;-38
2022/01/08 12:42:19;;;;;;;3.10;1.35;;;;;;;;;;5074943;28;20037;-38
2022/01/08 12:45:03;;;;;;;1.73;1.00;;;;;;;;;;5075118;28;20021;-37
2022/01/08 12:47:44;;;;;;;1.23;1.13;;;;;;;;;;5074737;28;20048;-37
2022/01/08 12:50:21;;;;;;;0.88;0.70;;;;;;;;;;5074909;28;20024;-37
2022/01/08 12:53:13;;;;;;;0.40;0.40;;;;;;;;;;5075217;28;20445;-38
2022/01/08 12:55:39;;;;;;;1.23;0.73;;;;;;;;;;5072861;28;20033;-37
2022/01/08 12:58:14;;;;;;;1.08;0.90;;;;;;;;;;5074814;28;20486;-40
2022/01/08 13:00:54;;;;;;;1.75;1.10;;;;;;;;;;5074989;28;20355;-37
2022/01/08 13:03:25;;;;;;;2.38;1.13;;;;;;;;;;5074480;28;20520;-38
2022/01/08 13:05:51;;;;;;;0.70;0.65;;;;;;;;;;5074691;28;20040;-38
2022/01/08 13:08:24;;;;;;;1.48;1.05;;;;;;;;;;5074360;28;20086;-38
2022/01/08 13:10:54;;;;;;;2.08;1.08;;;;;;;;;;5074484;28;20040;-39
2022/01/08 13:13:21;;;;;;;1.52;1.02;;;;;;;;;;5074473;28;20031;-38
2022/01/08 13:15:47;;;;;;;1.55;0.80;;;;;;;;;;5074296;28;20082;-37
2022/01/08 13:18:23;;;;;;;2.33;0.98;;;;;;;;;;5074349;28;20024;-37
2022/01/08 13:21:02;;;;;;;1.17;0.73;;;;;;;;;;5074229;28;20040;-37
2022/01/08 13:23:29;;;;;;;1.38;0.63;;;;;;;;;;5074062;28;20028;-37
2022/01/08 13:25:55;;;;;;;2.95;0.90;;;;;;;;;;5074253;28;20108;-38
2022/01/08 13:28:26;;;;;;;1.98;1.08;;;;;;;;;;5074017;28;20507;-37
2022/01/08 13:30:52;;;;;;;1.98;1.23;;;;;;;;;;5073990;28;20118;-38
2022/01/08 13:33:26;;;;;;;2.33;0.95;;;;;;;;;;5073958;28;20477;-38
2022/01/08 13:36:05;;;;;;;0.85;0.82;;;;;;;;;;5074012;28;20028;-37
2022/01/08 13:38:35;;;;;;;2.45;1.30;;;;;;;;;;5074006;28;20522;-37
2022/01/08 13:41:07;;;;;;;0.55;0.50;;;;;;;;;;5073496;28;20071;-37
2022/01/08 13:43:51;;;;;;;1.95;1.08;;;;;;;;;;5074187;28;20040;-37
2022/01/08 13:46:17;;;;;;;2.28;0.90;;;;;;;;;;5073742;28;20115;-38
2022/01/08 13:48:43;;;;;;;1.50;1.20;;;;;;;;;;5074026;28;20090;-38
2022/01/08 13:51:09;;;;;;;3.70;0.98;;;;;;;;;;5073624;28;20025;-38
2022/01/08 13:53:35;;;;;;;2.20;1.08;;;;;;;;;;5073669;28;20508;-37
2022/01/08 13:56:01;;;;;;;1.05;0.75;;;;;;;;;;5089373;28;20035;-38
2022/01/08 13:58:28;;;;;;;4.40;1.60;;;;;;;;;;5073379;28;20427;-37
2022/01/08 14:00:59;;;;;;;0.88;0.80;;;;;;;;;;5089169;28;20040;-38
2022/01/08 14:03:28;;;;;;;1.48;0.80;;;;;;;;;;5073402;28;20443;-38
2022/01/08 14:05:58;;;;;;;5.10;1.17;;;;;;;;;;5073475;28;20029;-38
2022/01/08 14:08:24;;;;;;;2.65;1.38;;;;;;;;;;5073263;28;20399;-37
2022/01/08 14:10:51;;;;;;;1.17;0.98;;;;;;;;;;5073727;28;20100;-37
2022/01/08 14:13:21;;;;;;;1.00;0.90;;;;;;;;;;5073254;28;20522;-37
2022/01/08 14:15:53;;;;;;;1.35;0.90;;;;;;;;;;5073589;28;20025;-37
2022/01/08 14:18:24;;;;;;;1.80;1.08;;;;;;;;;;5073285;28;20037;-38
2022/01/08 14:20:55;;;;;;;4.93;1.33;;;;;;;;;;5073060;28;20494;-37
2022/01/08 14:23:25;;;;;;;2.45;1.20;;;;;;;;;;5073469;28;20029;-37
2022/01/08 14:25:51;;;;;;;1.63;0.70;;;;;;;;;;5073134;28;20016;-37
2022/01/08 14:28:19;;;;;;;2.65;1.30;;;;;;;;;;5072914;28;20127;-38
2022/01/08 14:30:45;;;;;;;1.38;1.08;;;;;;;;;;5071791;28;20017;-37
2022/01/08 14:33:11;;;;;;;1.58;1.38;;;;;;;;;;5073142;28;20374;-37
2022/01/08 14:35:36;;;;;;;2.33;0.88;;;;;;;;;;5073008;28;20059;-38
2022/01/08 14:38:03;;;;;;;2.80;1.08;;;;;;;;;;5072864;28;20362;-37
2022/01/08 14:40:30;;;;;;;1.35;0.85;;;;;;;;;;5072697;28;20505;-38
2022/01/08 14:42:57;;;;;;;1.92;1.15;;;;;;;;;;5072667;28;20502;-37
2022/01/08 14:45:22;;;;;;;1.73;0.90;;;;;;;;;;5071431;28;20020;-37
2022/01/08 14:47:48;;;;;;;1.25;0.95;;;;;;;;;;5072665;28;20047;-37
2022/01/08 14:50:17;;;;;;;1.50;0.65;;;;;;;;;;5088454;28;20019;-38
2022/01/08 14:52:45;;;;;;;1.58;0.80;;;;;;;;;;5072090;28;20064;-38
2022/01/08 14:55:13;;;;;;;4.03;1.23;;;;;;;;;;5072344;28;20118;-38
2022/01/08 14:57:41;;;;;;;2.45;1.20;;;;;;;;;;5072469;28;20036;-37
2022/01/08 15:00:09;;;;;;;1.40;1.20;;;;;;;;;;5072572;28;20162;-38
2022/01/08 15:02:36;;;;;;;2.97;1.40;;;;;;;;;;5072424;28;20058;-38
2022/01/08 15:05:03;;;;;;;4.20;1.45;;;;;;;;;;5072451;28;20021;-37
2022/01/08 15:07:29;;;;;;;4.95;1.55;;;;;;;;;;5072408;28;20025;-38
2022/01/08 15:09:55;;;;;;;3.83;1.77;;;;;;;;;;5072304;28;20108;-37
2022/01/08 15:12:21;;;;;;;2.10;1.30;;;;;;;;;;5072208;28;20056;-37
2022/01/08 15:14:46;;;;;;;1.63;1.23;;;;;;;;;;5072124;28;20475;-37